KICL/ICL METAR and TAF weather

Enter ICAO airport designator
Station Type Date Time Source
KICL METAR 2022/12/02 22:35 UTC NOAA

KICL 022235Z AUTO 32014G26KT 10SM CLR 15/02 A2964 RMK AO2


Station Type Date Time Source
KICL Decoded METAR 2022/12/02 22:35 UTC NOAA

Clarinda, IA, United States (KICL) 40-43N 095-02W
Dec 02, 2022 - 05:35 PM EST / 2022.12.02 2235 UTC
Wind: from the NW (320 degrees) at 16 MPH (14 KT) gusting to 30 MPH (26 KT):0
Visibility: 10 mile(s):0
Sky conditions: clear
Temperature: 59 F (15 C)
Dew Point: 35 F (2 C)
Relative Humidity: 41%
Pressure (altimeter): 29.64 in. Hg (1003 hPa)
ob: KICL 022235Z AUTO 32014G26KT 10SM CLR 15/02 A2964 RMK AO2
cycle: 22

Station Type Date Time Source
KICL TAF UTC NOAA

Error!

Example: see airport list